createdAt,value
2019-06-01T00:01:16.187Z,19.40
2019-06-01T00:03:48.597Z,19.40
2019-06-01T00:06:18.396Z,19.30
2019-06-01T00:08:49.326Z,19.40
2019-06-01T00:11:19.256Z,19.30
2019-06-01T00:13:49.696Z,19.30
2019-06-01T00:16:19.751Z,19.30
2019-06-01T00:18:50.368Z,19.30
2019-06-01T00:21:20.251Z,19.30
2019-06-01T00:23:50.030Z,19.20
2019-06-01T00:26:19.796Z,19.20
2019-06-01T00:28:50.030Z,19.20
2019-06-01T00:31:19.856Z,19.20
2019-06-01T00:33:49.654Z,19.10
2019-06-01T00:36:19.419Z,19.10
2019-06-01T00:38:49.959Z,19.10
2019-06-01T00:41:19.948Z,19.10
2019-06-01T00:43:50.473Z,19.10
2019-06-01T00:46:20.312Z,19.10
2019-06-01T00:48:50.078Z,19.10
2019-06-01T00:51:19.841Z,19.10
2019-06-01T00:53:49.759Z,19.00
2019-06-01T00:56:19.509Z,19.00
2019-06-01T00:58:49.804Z,19.00
2019-06-01T01:01:19.656Z,19.00
2019-06-01T01:03:50.210Z,19.00
2019-06-01T01:06:20.096Z,18.90
2019-06-01T01:08:50.954Z,18.90
2019-06-01T01:11:20.819Z,18.90
2019-06-01T01:13:51.273Z,18.90
2019-06-01T01:16:21.085Z,18.90
2019-06-01T01:18:51.824Z,18.90
2019-06-01T01:21:21.832Z,18.90
2019-06-01T01:23:53.040Z,18.80
2019-06-01T01:26:23.095Z,18.80
2019-06-01T01:28:53.023Z,18.80
2019-06-01T01:31:22.730Z,18.80
2019-06-01T01:33:53.343Z,18.80
2019-06-01T01:36:23.136Z,18.70
2019-06-01T01:38:54.245Z,18.70
2019-06-01T01:41:25.222Z,18.70
2019-06-01T01:43:55.072Z,18.70
2019-06-01T01:46:24.762Z,18.70
2019-06-01T01:48:54.575Z,18.70
2019-06-01T01:51:24.342Z,18.70
2019-06-01T01:53:54.738Z,18.60
2019-06-01T01:56:24.586Z,18.60
2019-06-01T01:58:54.375Z,18.60
2019-06-01T02:01:24.182Z,18.60
2019-06-01T02:03:55.355Z,18.60
2019-06-01T02:06:28.825Z,18.60
2019-06-01T02:08:57.129Z,18.60
2019-06-01T02:11:27.704Z,18.50
2019-06-01T02:13:57.781Z,18.50
2019-06-01T02:16:27.727Z,18.50
2019-06-01T02:18:58.802Z,18.50
2019-06-01T02:21:28.820Z,18.50
2019-06-01T02:23:59.055Z,18.40
2019-06-01T02:26:29.067Z,18.40
2019-06-01T02:28:59.505Z,18.40
2019-06-01T02:31:40.473Z,18.40
2019-06-01T02:34:03.320Z,18.40
2019-06-01T02:36:32.234Z,18.40
2019-06-01T02:39:03.218Z,18.40
2019-06-01T02:41:33.491Z,18.40
2019-06-01T02:44:04.369Z,18.30
2019-06-01T02:46:36.293Z,18.30
2019-06-01T02:49:06.342Z,18.30
2019-06-01T02:51:36.427Z,18.30
2019-06-01T02:54:06.348Z,18.30
2019-06-01T02:56:36.344Z,18.30
2019-06-01T02:59:06.736Z,18.30
2019-06-01T03:01:38.016Z,18.30
2019-06-01T03:04:09.639Z,18.30
2019-06-01T03:06:42.255Z,18.30
2019-06-01T03:09:12.883Z,18.20
2019-06-01T03:11:42.851Z,18.20
2019-06-01T03:14:13.035Z,18.20
2019-06-01T03:16:43.538Z,18.20
2019-06-01T03:19:16.351Z,18.20
2019-06-01T03:21:47.720Z,18.10
2019-06-01T03:24:20.459Z,18.10
2019-06-01T03:26:50.228Z,18.10
2019-06-01T03:29:20.495Z,18.10
2019-06-01T03:31:50.200Z,18.00
2019-06-01T03:34:20.051Z,18.00
2019-06-01T03:36:50.316Z,18.00
2019-06-01T03:39:20.182Z,18.00
2019-06-01T03:41:49.924Z,18.00
2019-06-01T03:44:19.686Z,17.90
2019-06-01T03:46:49.531Z,17.90
2019-06-01T03:49:19.363Z,17.90
2019-06-01T03:51:49.088Z,17.90
2019-06-01T03:54:18.973Z,17.90
2019-06-01T03:56:48.889Z,17.90
2019-06-01T03:59:18.755Z,17.90
2019-06-01T04:01:48.632Z,17.90
2019-06-01T04:04:18.467Z,17.90
2019-06-01T04:06:48.261Z,17.90
2019-06-01T04:09:17.968Z,17.80
2019-06-01T04:11:47.822Z,17.80
2019-06-01T04:14:17.599Z,17.80
2019-06-01T04:16:47.390Z,17.80
2019-06-01T04:19:17.183Z,17.80
2019-06-01T04:21:46.957Z,17.80
2019-06-01T04:24:16.905Z,17.80
2019-06-01T04:26:46.669Z,17.70
2019-06-01T04:29:16.508Z,17.70
2019-06-01T04:31:46.205Z,17.70
2019-06-01T04:34:16.050Z,17.70
2019-06-01T04:36:45.834Z,17.70
2019-06-01T04:39:15.601Z,17.70
2019-06-01T04:41:45.434Z,17.70
2019-06-01T04:44:18.203Z,17.70
2019-06-01T04:46:46.555Z,17.70
2019-06-01T04:49:16.316Z,17.70
2019-06-01T04:51:46.215Z,17.70
2019-06-01T04:54:16.111Z,17.70
2019-06-01T04:56:45.995Z,17.70
2019-06-01T04:59:15.848Z,17.60
2019-06-01T05:01:45.691Z,17.70
2019-06-01T05:04:15.587Z,17.70
2019-06-01T05:06:45.472Z,17.70
2019-06-01T05:09:15.748Z,17.70
2019-06-01T05:11:46.822Z,17.70
2019-06-01T05:14:16.748Z,17.70
2019-06-01T05:16:46.676Z,17.70
2019-06-01T05:19:16.787Z,17.70
2019-06-01T05:21:46.805Z,17.70
2019-06-01T05:24:17.659Z,17.70
2019-06-01T05:26:47.532Z,17.70
2019-06-01T05:29:18.014Z,17.60
2019-06-01T05:31:48.298Z,17.70
2019-06-01T05:34:19.306Z,17.70
2019-06-01T05:36:49.197Z,17.70
2019-06-01T05:39:20.087Z,17.70
2019-06-01T05:41:49.928Z,17.70
2019-06-01T05:44:25.947Z,17.70
2019-06-01T05:46:56.847Z,17.80
2019-06-01T05:49:42.754Z,17.80
2019-06-01T05:52:14.493Z,17.80
2019-06-01T05:54:44.458Z,17.80
2019-06-01T05:57:14.723Z,17.80
2019-06-01T05:59:46.505Z,17.90
2019-06-01T06:02:22.870Z,17.90
2019-06-01T06:04:54.182Z,17.90
2019-06-01T06:07:24.246Z,17.90
2019-06-01T06:09:54.135Z,17.90
2019-06-01T06:12:24.066Z,17.90
2019-06-01T06:14:59.727Z,18.00
2019-06-01T06:17:29.586Z,18.00
2019-06-01T06:19:59.438Z,18.00
2019-06-01T06:22:29.299Z,18.00
2019-06-01T06:25:02.425Z,18.00
2019-06-01T06:27:32.392Z,18.00
2019-06-01T06:30:03.042Z,18.00
2019-06-01T06:32:34.350Z,18.00
2019-06-01T06:35:07.250Z,18.00
2019-06-01T06:37:37.123Z,18.00
2019-06-01T06:40:09.477Z,18.00
2019-06-01T06:42:39.337Z,18.00
2019-06-01T06:45:09.145Z,18.00
2019-06-01T06:47:40.611Z,18.00
2019-06-01T06:50:16.008Z,18.00
2019-06-01T06:52:48.883Z,18.00
2019-06-01T06:55:19.811Z,18.00
2019-06-01T06:57:51.558Z,18.00
2019-06-01T07:00:22.657Z,18.00
2019-06-01T07:02:52.585Z,17.90
2019-06-01T07:05:23.229Z,17.90
2019-06-01T07:07:54.213Z,18.00
2019-06-01T07:10:24.295Z,18.00
2019-06-01T07:12:54.250Z,18.00
2019-06-01T07:15:24.116Z,18.00
2019-06-01T07:17:53.996Z,18.00
2019-06-01T07:20:23.825Z,18.00
2019-06-01T07:22:53.737Z,18.10
2019-06-01T07:25:24.487Z,18.10
2019-06-01T07:27:54.775Z,18.10
2019-06-01T07:30:24.608Z,18.10
2019-06-01T07:32:54.702Z,18.10
2019-06-01T07:35:26.382Z,18.20
2019-06-01T07:37:56.226Z,18.10
2019-06-01T07:40:27.217Z,18.10
2019-06-01T07:42:58.107Z,18.20
2019-06-01T07:45:29.370Z,18.30
2019-06-01T07:47:59.466Z,18.20
2019-06-01T07:50:29.287Z,18.30
2019-06-01T07:53:00.453Z,18.30
2019-06-01T07:55:31.650Z,18.30
2019-06-01T07:58:01.747Z,18.30
2019-06-01T08:00:33.236Z,18.30
2019-06-01T08:03:03.268Z,18.40
2019-06-01T08:05:33.143Z,18.40
2019-06-01T08:08:03.045Z,18.40
2019-06-01T08:10:32.905Z,18.40
2019-06-01T08:13:02.791Z,18.40
2019-06-01T08:15:32.624Z,18.40
2019-06-01T08:18:02.509Z,18.40
2019-06-01T08:20:32.378Z,18.40
2019-06-01T08:23:02.230Z,18.50
2019-06-01T08:25:32.780Z,18.50
2019-06-01T08:28:02.749Z,18.50
2019-06-01T08:30:32.740Z,18.50
2019-06-01T08:33:03.669Z,18.50
2019-06-01T08:35:33.537Z,18.60
2019-06-01T08:38:04.272Z,18.60
2019-06-01T08:40:34.130Z,18.60
2019-06-01T08:43:03.993Z,18.60
2019-06-01T08:45:37.253Z,18.60
2019-06-01T08:48:05.473Z,18.70
2019-06-01T08:50:35.346Z,18.70
2019-06-01T08:53:05.245Z,18.70
2019-06-01T08:55:35.144Z,18.70
2019-06-01T08:58:05.119Z,18.80
2019-06-01T09:00:35.010Z,18.80
2019-06-01T09:03:04.893Z,18.80
2019-06-01T09:05:35.168Z,18.90
2019-06-01T09:08:05.318Z,18.80
2019-06-01T09:10:36.301Z,18.90
2019-06-01T09:13:06.190Z,18.90
2019-06-01T09:15:36.072Z,18.90
2019-06-01T09:18:05.923Z,19.00
2019-06-01T09:20:38.736Z,19.00
2019-06-01T09:23:07.312Z,19.00
2019-06-01T09:25:37.221Z,19.10
2019-06-01T09:28:07.138Z,19.10
2019-06-01T09:30:37.108Z,19.10
2019-06-01T09:33:06.993Z,19.10
2019-06-01T09:35:53.687Z,19.20
2019-06-01T09:38:08.418Z,19.20
2019-06-01T09:40:38.314Z,19.30
2019-06-01T09:43:08.154Z,19.30
2019-06-01T09:45:38.367Z,19.30
2019-06-01T09:48:10.889Z,19.40
2019-06-01T09:50:41.330Z,19.40
2019-06-01T09:53:11.238Z,19.40
2019-06-01T09:55:41.124Z,19.50
2019-06-01T09:58:11.011Z,19.50
2019-06-01T10:00:43.622Z,19.50
2019-06-01T10:03:12.500Z,19.60
2019-06-01T10:05:42.388Z,19.60
2019-06-01T10:08:12.320Z,19.60
2019-06-01T10:10:42.334Z,19.70
2019-06-01T10:13:12.365Z,19.70
2019-06-01T10:15:42.962Z,19.70
2019-06-01T10:18:17.607Z,19.70
2019-06-01T10:20:47.456Z,19.80
2019-06-01T10:23:18.903Z,19.80
2019-06-01T10:25:48.597Z,19.90
2019-06-01T10:28:18.545Z,20.10
2019-06-01T10:30:51.417Z,20.20
2019-06-01T10:33:43.214Z,20.30
2019-06-01T10:44:51.320Z,20.60
2019-06-01T10:47:22.821Z,20.70
2019-06-01T10:49:56.283Z,20.80
2019-06-01T10:52:26.215Z,20.80
2019-06-01T10:55:15.245Z,20.90
2019-06-01T10:57:48.535Z,21.00
2019-06-01T11:00:36.544Z,21.00
2019-06-01T11:02:50.304Z,21.10
2019-06-01T11:05:22.898Z,21.10
2019-06-01T11:07:52.773Z,21.20
2019-06-01T11:13:43.344Z,21.30
2019-06-01T11:16:13.425Z,21.40
2019-06-01T11:18:48.247Z,21.50
2019-06-01T11:21:21.206Z,21.60
2019-06-01T11:23:50.989Z,21.60
2019-06-01T11:26:20.848Z,21.60
2019-06-01T11:28:50.583Z,21.60
2019-06-01T11:31:20.449Z,21.70
2019-06-01T11:33:50.254Z,21.70
2019-06-01T11:36:20.106Z,21.70
2019-06-01T11:38:50.096Z,21.70
2019-06-01T11:41:19.970Z,21.60
2019-06-01T11:43:49.859Z,21.60
2019-06-01T11:46:19.763Z,21.60
2019-06-01T11:48:52.672Z,21.50
2019-06-01T11:51:22.543Z,21.50
2019-06-01T11:53:55.081Z,21.50
2019-06-01T11:56:24.947Z,21.50
2019-06-01T11:58:54.840Z,21.50
2019-06-01T12:01:24.713Z,21.50
2019-06-01T12:03:54.632Z,21.50
2019-06-01T12:06:24.505Z,21.50
2019-06-01T12:08:55.269Z,21.50
2019-06-01T12:11:25.045Z,21.60
2019-06-01T12:13:55.002Z,21.60
2019-06-01T12:16:24.970Z,21.60
2019-06-01T12:18:55.961Z,21.60
2019-06-01T12:21:25.780Z,21.60
2019-06-01T12:23:55.749Z,21.60
2019-06-01T12:26:25.653Z,21.60
2019-06-01T12:28:55.519Z,21.70
2019-06-01T12:31:25.439Z,21.70
2019-06-01T12:33:55.289Z,21.70
2019-06-01T12:36:25.657Z,21.70
2019-06-01T12:38:55.484Z,21.70
2019-06-01T12:41:25.379Z,21.70
2019-06-01T12:44:02.769Z,21.80
2019-06-01T12:46:32.602Z,21.80
2019-06-01T12:49:02.493Z,21.80
2019-06-01T12:51:32.380Z,21.90
2019-06-01T12:54:02.332Z,21.90
2019-06-01T12:56:35.189Z,21.90
2019-06-01T12:59:05.943Z,22.00
2019-06-01T13:01:35.806Z,22.00
2019-06-01T13:04:05.701Z,22.10
2019-06-01T13:06:35.585Z,22.10
2019-06-01T13:09:07.955Z,22.10
2019-06-01T13:11:37.858Z,22.10
2019-06-01T13:14:07.769Z,22.10
2019-06-01T13:16:37.597Z,22.10
2019-06-01T13:19:07.445Z,22.20
2019-06-01T13:21:43.440Z,22.20
2019-06-01T13:24:13.308Z,22.20
2019-06-01T13:26:43.723Z,22.20
2019-06-01T13:29:13.830Z,22.20
2019-06-01T13:31:44.353Z,22.20
2019-06-01T13:34:14.423Z,22.20
2019-06-01T13:36:44.561Z,22.20
2019-06-01T13:39:14.668Z,22.30
2019-06-01T13:41:45.066Z,22.30
2019-06-01T13:44:15.671Z,22.30
2019-06-01T13:46:45.541Z,22.30
2019-06-01T13:49:15.485Z,22.30
2019-06-01T13:51:47.829Z,22.30
2019-06-01T13:54:23.277Z,22.50
2019-06-01T13:57:09.848Z,22.60
2019-06-01T13:59:44.767Z,22.70
2019-06-01T14:02:16.216Z,22.70
2019-06-01T14:04:49.822Z,22.70
2019-06-01T14:07:19.145Z,22.60
2019-06-01T14:09:49.124Z,22.60
2019-06-01T14:12:19.037Z,22.60
2019-06-01T14:14:53.557Z,22.60
2019-06-01T14:17:26.281Z,22.60
2019-06-01T14:19:57.374Z,22.60
2019-06-01T14:22:34.626Z,22.70
2019-06-01T14:25:14.227Z,22.70
2019-06-01T14:27:40.128Z,22.90
2019-06-01T14:30:10.229Z,22.80
2019-06-01T14:32:40.054Z,22.90
2019-06-01T14:35:11.479Z,22.90
2019-06-01T14:37:41.507Z,22.80
2019-06-01T14:40:14.654Z,22.90
2019-06-01T14:42:47.224Z,22.90
2019-06-01T14:45:18.769Z,22.90
2019-06-01T14:48:00.979Z,22.90
2019-06-01T14:50:32.447Z,22.90
2019-06-01T14:53:06.455Z,22.90
2019-06-01T14:55:41.978Z,22.90
2019-06-01T14:58:25.015Z,23.00
2019-06-01T15:01:06.095Z,23.00
2019-06-01T15:03:36.041Z,23.00
2019-06-01T15:06:10.743Z,23.10
2019-06-01T15:08:42.267Z,23.10
2019-06-01T15:11:14.693Z,23.10
2019-06-01T15:13:45.991Z,23.10
2019-06-01T15:16:20.359Z,23.10
2019-06-01T15:22:03.527Z,23.20
2019-06-01T15:24:46.998Z,23.40
2019-06-01T15:27:22.669Z,23.50
2019-06-01T15:29:55.013Z,23.50
2019-06-01T15:35:16.784Z,23.70
2019-06-01T15:37:58.130Z,23.60
2019-06-01T15:40:21.677Z,23.70
2019-06-01T15:42:53.590Z,23.60
2019-06-01T15:45:24.075Z,23.70
2019-06-01T15:47:58.332Z,23.70
2019-06-01T15:50:30.005Z,23.70
2019-06-01T15:53:08.081Z,23.70
2019-06-01T15:55:43.993Z,23.70
2019-06-01T15:58:19.902Z,23.70
2019-06-01T16:00:54.985Z,23.80
2019-06-01T16:03:37.178Z,23.80
2019-06-01T16:06:03.478Z,23.80
2019-06-01T16:08:55.280Z,23.80
2019-06-01T16:11:14.719Z,23.80
2019-06-01T16:23:18.823Z,23.90
2019-06-01T16:26:04.539Z,23.80
2019-06-01T16:28:25.199Z,23.90
2019-06-01T16:30:56.293Z,23.90
2019-06-01T16:33:27.823Z,23.90
2019-06-01T16:35:58.749Z,23.90
2019-06-01T16:38:28.782Z,23.90
2019-06-01T16:41:01.280Z,23.90
2019-06-01T16:43:31.373Z,24.00
2019-06-01T16:46:02.094Z,24.10
2019-06-01T16:48:32.153Z,24.10
2019-06-01T16:51:02.588Z,24.20
2019-06-01T16:53:32.867Z,24.20
2019-06-01T16:56:02.649Z,24.30
2019-06-01T16:58:32.509Z,24.30
2019-06-01T17:01:02.638Z,24.30
2019-06-01T17:03:32.629Z,24.30
2019-06-01T17:06:02.887Z,24.40
2019-06-01T17:08:32.937Z,24.40
2019-06-01T17:11:02.826Z,24.40
2019-06-01T17:13:32.658Z,24.40
2019-06-01T17:16:03.023Z,24.40
2019-06-01T17:18:32.991Z,24.40
2019-06-01T17:21:03.542Z,24.40
2019-06-01T17:23:33.436Z,24.40
2019-06-01T17:26:04.078Z,24.40
2019-06-01T17:28:35.095Z,24.40
2019-06-01T17:31:06.291Z,24.40
2019-06-01T17:33:36.236Z,24.50
2019-06-01T17:36:06.842Z,24.50
2019-06-01T17:38:37.828Z,24.50
2019-06-01T17:41:08.446Z,24.50
2019-06-01T17:43:39.168Z,24.50
2019-06-01T17:46:10.100Z,24.50
2019-06-01T17:48:40.710Z,24.50
2019-06-01T17:51:17.830Z,24.50
2019-06-01T17:53:47.667Z,24.60
2019-06-01T17:56:17.534Z,24.50
2019-06-01T17:58:47.331Z,24.50
2019-06-01T18:01:17.033Z,24.50
2019-06-01T18:03:46.880Z,24.50
2019-06-01T18:06:16.663Z,24.50
2019-06-01T18:08:46.448Z,24.50
2019-06-01T18:11:17.261Z,24.50
2019-06-01T18:13:47.103Z,24.40
2019-06-01T18:16:16.955Z,24.40
2019-06-01T18:18:47.802Z,24.40
2019-06-01T18:21:17.685Z,24.40
2019-06-01T18:23:49.236Z,24.40
2019-06-01T18:26:18.952Z,24.40
2019-06-01T18:28:48.805Z,24.40
2019-06-01T18:31:18.646Z,24.40
2019-06-01T18:33:48.377Z,24.30
2019-06-01T18:36:19.695Z,24.30
2019-06-01T18:38:49.506Z,24.30
2019-06-01T18:41:20.187Z,24.30
2019-06-01T18:43:50.026Z,24.30
2019-06-01T18:46:20.784Z,24.30
2019-06-01T18:48:50.579Z,24.30
2019-06-01T18:51:20.367Z,24.30
2019-06-01T18:53:50.253Z,24.20
2019-06-01T18:56:20.052Z,24.20
2019-06-01T18:58:49.899Z,24.10
2019-06-01T19:01:21.084Z,24.10
2019-06-01T19:03:51.428Z,24.10
2019-06-01T19:06:21.287Z,24.10
2019-06-01T19:08:51.053Z,24.00
2019-06-01T19:11:35.110Z,24.00
2019-06-01T19:13:52.396Z,24.00
2019-06-01T19:16:22.183Z,24.00
2019-06-01T19:18:51.969Z,23.90
2019-06-01T19:21:21.759Z,23.90
2019-06-01T19:23:51.623Z,23.90
2019-06-01T19:26:21.433Z,23.90
2019-06-01T19:28:51.347Z,23.90
2019-06-01T19:31:21.131Z,23.80
2019-06-01T19:33:50.959Z,23.90
2019-06-01T19:36:20.943Z,23.80
2019-06-01T19:38:51.701Z,23.80
2019-06-01T19:41:21.480Z,23.80
2019-06-01T19:43:51.470Z,23.70
2019-06-01T19:46:23.489Z,23.70
2019-06-01T19:48:53.999Z,23.70
2019-06-01T19:51:29.720Z,23.70
2019-06-01T19:53:59.600Z,23.60
2019-06-01T19:56:29.537Z,23.60
2019-06-01T19:59:03.139Z,23.60
2019-06-01T20:01:33.119Z,23.60
2019-06-01T20:04:02.943Z,23.60
2019-06-01T20:06:37.499Z,23.60
2019-06-01T20:09:13.032Z,23.60
2019-06-01T20:11:43.117Z,23.60
2019-06-01T20:14:14.191Z,23.60
2019-06-01T20:16:44.262Z,23.60
2019-06-01T20:19:14.190Z,23.50
2019-06-01T20:21:44.191Z,23.60
2019-06-01T20:24:15.717Z,23.50
2019-06-01T20:26:49.203Z,23.50
2019-06-01T20:29:17.683Z,23.50
2019-06-01T20:31:47.594Z,23.50
2019-06-01T20:34:18.010Z,23.50
2019-06-01T20:36:48.036Z,23.50
2019-06-01T20:39:18.290Z,23.50
2019-06-01T20:41:48.190Z,23.50
2019-06-01T20:44:18.831Z,23.50
2019-06-01T20:46:48.861Z,23.50
2019-06-01T20:49:18.747Z,23.40
2019-06-01T20:51:48.583Z,23.40
2019-06-01T20:54:19.051Z,23.40
2019-06-01T20:56:48.922Z,23.40
2019-06-01T20:59:21.293Z,23.40
2019-06-01T21:01:50.199Z,23.40
2019-06-01T21:04:20.368Z,23.40
2019-06-01T21:06:50.929Z,23.40
2019-06-01T21:09:21.926Z,23.40
2019-06-01T21:11:52.018Z,23.30
2019-06-01T21:14:21.825Z,23.30
2019-06-01T21:16:51.728Z,23.30
2019-06-01T21:19:22.412Z,23.30
2019-06-01T21:21:52.395Z,23.20
2019-06-01T21:24:23.092Z,23.30
2019-06-01T21:26:53.845Z,23.30
2019-06-01T21:29:25.064Z,23.20
2019-06-01T21:31:55.176Z,23.20
2019-06-01T21:34:25.438Z,23.20
2019-06-01T21:36:55.346Z,23.20
2019-06-01T21:39:26.218Z,23.10
2019-06-01T21:41:55.981Z,23.10
2019-06-01T21:44:25.888Z,23.10
2019-06-01T21:46:56.738Z,23.10
2019-06-01T21:49:26.516Z,23.10
2019-06-01T21:51:56.406Z,23.10
2019-06-01T21:54:26.432Z,23.10
2019-06-01T21:56:56.323Z,23.00
2019-06-01T21:59:27.177Z,23.10
2019-06-01T22:01:57.200Z,23.00
2019-06-01T22:04:27.226Z,23.00
2019-06-01T22:06:57.194Z,23.00
2019-06-01T22:09:27.429Z,23.00
2019-06-01T22:11:57.426Z,23.00
2019-06-01T22:14:28.265Z,22.90
2019-06-01T22:16:58.111Z,22.90
2019-06-01T22:19:28.093Z,22.90
2019-06-01T22:21:58.075Z,22.90
2019-06-01T22:24:28.278Z,22.90
2019-06-01T22:26:58.367Z,22.90
2019-06-01T22:29:28.622Z,22.90
2019-06-01T22:31:58.614Z,22.90
2019-06-01T22:34:29.293Z,22.80
2019-06-01T22:36:59.433Z,22.80
2019-06-01T22:39:29.276Z,22.80
2019-06-01T22:41:59.156Z,22.80
2019-06-01T22:44:29.015Z,22.70
2019-06-01T22:46:58.863Z,22.80
2019-06-01T22:49:28.940Z,22.70
2019-06-01T22:51:58.834Z,22.70
2019-06-01T22:54:29.366Z,22.70
2019-06-01T22:56:59.324Z,22.70
2019-06-01T22:59:29.409Z,22.70
2019-06-01T23:01:59.041Z,22.60
2019-06-01T23:04:29.349Z,22.60
2019-06-01T23:06:59.293Z,22.60
2019-06-01T23:09:29.667Z,22.60
2019-06-01T23:11:59.507Z,22.60
2019-06-01T23:14:29.513Z,22.60
2019-06-01T23:16:59.317Z,22.50
2019-06-01T23:19:29.942Z,22.50
2019-06-01T23:21:59.879Z,22.50
2019-06-01T23:24:30.314Z,22.50
2019-06-01T23:27:00.195Z,22.50
2019-06-01T23:29:30.271Z,22.50
2019-06-01T23:32:00.162Z,22.40
2019-06-01T23:34:30.668Z,22.40
2019-06-01T23:37:00.569Z,22.40
2019-06-01T23:39:32.910Z,22.40
2019-06-01T23:42:02.935Z,22.40
2019-06-01T23:44:35.004Z,22.40
2019-06-01T23:47:04.315Z,22.40
2019-06-01T23:49:34.241Z,22.40
2019-06-01T23:52:03.914Z,22.40
2019-06-01T23:54:33.939Z,22.40
2019-06-01T23:57:03.927Z,22.40
2019-06-01T23:59:34.346Z,22.30
